Time;durP1;ratioP1;P1;durP2;ratioP2;P2;SDS_P1;SDS_P2;PMS_P1;PMS_P2;Temp;Humidity;BMP_temperature;BMP_pressure;BME280_temperature;BME280_humidity;BME280_pressure;Samples;Min_cycle;Max_cycle;Signal;HPM_P1;HPM_P2
2023/08/12 00:01:20;;;;;;;1.38;1.20;;;22.40;99.90;;;;;;5003596;28;20046;-80
2023/08/12 00:03:48;;;;;;;5.27;1.57;;;22.40;99.90;;;;;;5005738;28;20046;-80
2023/08/12 00:06:15;;;;;;;8.35;1.70;;;22.40;99.90;;;;;;5010949;28;20100;-82
2023/08/12 00:08:42;;;;;;;1.75;1.50;;;22.40;99.90;;;;;;5011202;28;20169;-82
2023/08/12 00:11:09;;;;;;;2.17;1.65;;;22.40;99.90;;;;;;5005621;28;20038;-83
2023/08/12 00:13:35;;;;;;;2.67;1.80;;;22.40;99.90;;;;;;5008917;28;20047;-82
2023/08/12 00:16:02;;;;;;;3.03;1.75;;;22.40;99.90;;;;;;5012331;28;20047;-81
2023/08/12 00:18:29;;;;;;;3.60;2.38;;;22.40;99.90;;;;;;4989398;28;20060;-82
2023/08/12 00:20:57;;;;;;;2.92;1.65;;;22.40;99.90;;;;;;5011685;28;20050;-83
2023/08/12 00:23:24;;;;;;;3.38;1.73;;;22.40;99.90;;;;;;5010466;28;20054;-81
2023/08/12 00:25:50;;;;;;;4.05;1.80;;;22.40;99.90;;;;;;5005473;28;20057;-81
2023/08/12 00:28:17;;;;;;;1.92;1.42;;;22.40;99.90;;;;;;5005792;28;20069;-82
2023/08/12 00:30:44;;;;;;;3.42;1.80;;;22.40;99.90;;;;;;5006929;28;20070;-83
2023/08/12 00:33:11;;;;;;;2.50;1.98;;;22.40;99.90;;;;;;5002595;28;20061;-82
2023/08/12 00:35:37;;;;;;;4.85;1.77;;;22.40;99.90;;;;;;5008779;28;20057;-83
2023/08/12 00:38:04;;;;;;;4.53;2.10;;;22.40;99.90;;;;;;5011483;28;20042;-82
2023/08/12 00:40:31;;;;;;;2.03;1.63;;;22.40;99.90;;;;;;5004771;28;20050;-81
2023/08/12 00:42:58;;;;;;;3.67;1.80;;;22.40;99.90;;;;;;5006455;28;20050;-82
2023/08/12 00:45:25;;;;;;;4.95;1.73;;;22.40;99.90;;;;;;4989816;28;20126;-81
2023/08/12 00:47:51;;;;;;;4.18;1.60;;;22.40;99.90;;;;;;5000838;28;20109;-80
2023/08/12 00:50:19;;;;;;;2.42;1.45;;;22.40;99.90;;;;;;5008526;28;20132;-82
2023/08/12 00:52:46;;;;;;;2.55;1.70;;;22.40;99.90;;;;;;5009483;28;20046;-82
2023/08/12 00:55:13;;;;;;;2.17;1.60;;;22.40;99.90;;;;;;5005780;28;20046;-82
2023/08/12 00:57:39;;;;;;;2.25;1.35;;;22.30;99.90;;;;;;5003865;28;20474;-82
2023/08/12 01:00:07;;;;;;;5.38;1.75;;;22.30;99.90;;;;;;5007868;28;20104;-80
2023/08/12 01:02:34;;;;;;;2.17;1.60;;;22.30;99.90;;;;;;5007526;28;20096;-82
2023/08/12 01:05:02;;;;;;;4.30;2.05;;;22.30;99.90;;;;;;5009751;28;20081;-82
2023/08/12 01:07:28;;;;;;;4.95;1.92;;;22.30;99.90;;;;;;5010977;28;20050;-82
2023/08/12 01:09:55;;;;;;;2.45;2.00;;;22.30;99.90;;;;;;5006792;28;20042;-81
2023/08/12 01:12:30;;;;;;;5.40;2.20;;;22.20;99.90;;;;;;4985165;28;20050;-83
2023/08/12 01:15:26;;;;;;;2.95;1.70;;;22.30;99.90;;;;;;5007905;28;20105;-81
2023/08/12 01:17:55;;;;;;;10.48;8.10;;;22.20;99.90;;;;;;4984295;28;20515;-81
2023/08/12 01:20:24;;;;;;;3.13;2.58;;;22.20;99.90;;;;;;5006921;28;20054;-82
2023/08/12 01:23:07;;;;;;;5.80;2.63;;;22.20;99.90;;;;;;5008596;28;20104;-81
2023/08/12 01:25:34;;;;;;;5.68;1.73;;;22.20;99.90;;;;;;4995206;28;20057;-81
2023/08/12 01:28:01;;;;;;;2.17;1.55;;;22.20;99.90;;;;;;5008105;28;20468;-81
2023/08/12 01:30:28;;;;;;;3.15;1.60;;;22.20;99.90;;;;;;5009321;28;20059;-83
2023/08/12 01:33:09;;;;;;;6.35;3.58;;;22.20;99.90;;;;;;4998292;28;20138;-82
2023/08/12 01:35:41;;;;;;;7.60;2.20;;;22.20;99.90;;;;;;5005914;28;20046;-82
2023/08/12 01:38:09;;;;;;;4.45;2.28;;;22.20;99.90;;;;;;5009539;28;20116;-82
2023/08/12 01:40:38;;;;;;;2.95;1.38;;;22.20;99.90;;;;;;5002384;28;20061;-84
2023/08/12 01:43:06;;;;;;;3.65;1.85;;;22.10;99.90;;;;;;5007670;28;20058;-82
2023/08/12 01:45:34;;;;;;;6.45;4.35;;;22.10;99.90;;;;;;4991739;28;20058;-82
2023/08/12 01:48:00;;;;;;;2.40;2.10;;;22.10;99.90;;;;;;4998629;28;20053;-82
2023/08/12 01:50:27;;;;;;;4.85;1.40;;;22.10;99.90;;;;;;5004983;28;20078;-82
2023/08/12 01:52:54;;;;;;;2.63;1.73;;;22.00;99.90;;;;;;4998567;28;20053;-80
2023/08/12 01:55:21;;;;;;;2.85;1.77;;;22.00;99.90;;;;;;5003801;28;20051;-82
2023/08/12 01:57:47;;;;;;;2.70;1.67;;;22.00;99.90;;;;;;5005901;28;20058;-82
2023/08/12 02:00:15;;;;;;;5.78;1.73;;;22.00;99.90;;;;;;4994513;28;20701;-82
2023/08/12 02:02:42;;;;;;;3.25;1.60;;;22.00;99.90;;;;;;5011562;28;20081;-81
2023/08/12 02:05:09;;;;;;;3.83;1.35;;;22.00;99.90;;;;;;5006124;28;20050;-82
2023/08/12 02:07:36;;;;;;;3.00;1.88;;;22.00;99.90;;;;;;5007978;28;20117;-82
2023/08/12 02:10:02;;;;;;;5.60;1.98;;;21.90;99.90;;;;;;5006589;28;20055;-83
2023/08/12 02:12:29;;;;;;;2.40;1.52;;;21.90;99.90;;;;;;5004663;28;20089;-82
2023/08/12 02:14:56;;;;;;;2.53;1.90;;;21.90;99.90;;;;;;5011126;28;20057;-82
2023/08/12 02:17:22;;;;;;;3.28;1.88;;;21.90;99.90;;;;;;5013793;28;20047;-82
2023/08/12 02:19:49;;;;;;;4.30;2.30;;;21.90;99.90;;;;;;5007025;28;20072;-83
2023/08/12 02:22:16;;;;;;;5.93;1.75;;;21.90;99.90;;;;;;5009315;28;20077;-82
2023/08/12 02:24:43;;;;;;;1.70;1.60;;;21.90;99.90;;;;;;5008128;28;20492;-82
2023/08/12 02:27:09;;;;;;;5.40;1.73;;;21.90;99.90;;;;;;5004022;28;20093;-81
2023/08/12 02:29:37;;;;;;;1.85;1.40;;;21.90;99.90;;;;;;4994834;28;20078;-81
2023/08/12 02:32:04;;;;;;;4.20;1.38;;;21.90;99.90;;;;;;5009211;28;20726;-82
2023/08/12 02:34:30;;;;;;;3.85;1.50;;;21.90;99.90;;;;;;5001003;28;20054;-81
2023/08/12 02:36:57;;;;;;;12.32;6.75;;;21.90;99.90;;;;;;5005581;28;20050;-82
2023/08/12 02:39:24;;;;;;;65.40;37.45;;;21.80;99.90;;;;;;5003609;28;20085;-82
2023/08/12 02:41:50;;;;;;;42.95;25.17;;;21.80;99.90;;;;;;5003537;28;20050;-82
2023/08/12 02:44:17;;;;;;;5.45;2.75;;;21.80;99.90;;;;;;4996555;28;20050;-82
2023/08/12 02:46:44;;;;;;;4.00;1.30;;;21.80;99.90;;;;;;5008269;28;20109;-83
2023/08/12 02:49:11;;;;;;;2.10;1.75;;;21.80;99.90;;;;;;5004987;28;20061;-82
2023/08/12 02:51:37;;;;;;;3.58;1.40;;;21.80;99.90;;;;;;4988732;28;20477;-82
2023/08/12 02:54:04;;;;;;;2.90;1.70;;;21.80;99.90;;;;;;5006083;28;20055;-82
2023/08/12 02:56:31;;;;;;;2.55;1.58;;;21.80;99.90;;;;;;5001515;28;20390;-81
2023/08/12 02:58:58;;;;;;;8.10;5.68;;;21.80;99.90;;;;;;5006967;28;20395;-81
2023/08/12 03:01:24;;;;;;;7.68;3.75;;;21.70;99.90;;;;;;5007437;28;20054;-82
2023/08/12 03:03:51;;;;;;;6.75;2.92;;;21.70;99.90;;;;;;5005188;28;20114;-82
2023/08/12 03:06:18;;;;;;;8.32;2.28;;;21.70;99.90;;;;;;5007423;28;20045;-82
2023/08/12 03:08:45;;;;;;;6.10;1.80;;;21.70;99.90;;;;;;5008223;28;20116;-81
2023/08/12 03:11:11;;;;;;;3.70;1.65;;;21.70;99.90;;;;;;5011520;28;20049;-82
2023/08/12 03:13:38;;;;;;;4.40;2.75;;;21.70;99.90;;;;;;5007098;28;20042;-82
2023/08/12 03:16:14;;;;;;;5.15;2.00;;;21.70;99.90;;;;;;5010311;28;20042;-82
2023/08/12 03:18:41;;;;;;;5.10;1.75;;;21.70;99.90;;;;;;5004257;28;20052;-82
2023/08/12 03:21:09;;;;;;;3.03;1.40;;;21.70;99.90;;;;;;5004546;28;20047;-82
2023/08/12 03:23:36;;;;;;;3.35;1.50;;;21.70;99.90;;;;;;5008171;28;20054;-82
2023/08/12 03:26:03;;;;;;;4.50;1.85;;;21.60;99.90;;;;;;5014254;28;20054;-82
2023/08/12 03:28:31;;;;;;;4.20;1.75;;;21.70;99.90;;;;;;5007086;28;20041;-82
2023/08/12 03:30:57;;;;;;;4.28;1.98;;;21.70;99.90;;;;;;5008524;28;20098;-83
2023/08/12 03:33:24;;;;;;;4.35;3.10;;;21.70;99.90;;;;;;5006216;28;20136;-80
2023/08/12 03:35:51;;;;;;;3.65;2.53;;;21.60;99.90;;;;;;5002420;28;20101;-83
2023/08/12 03:38:18;;;;;;;4.43;2.83;;;21.60;99.90;;;;;;5010237;28;20049;-83
2023/08/12 03:40:44;;;;;;;4.40;3.35;;;21.60;99.90;;;;;;4997738;28;20045;-82
2023/08/12 03:43:11;;;;;;;6.85;3.35;;;21.60;99.90;;;;;;5011521;28;20058;-82
2023/08/12 03:45:43;;;;;;;5.07;2.88;;;21.60;99.90;;;;;;5010780;28;20058;-82
2023/08/12 03:48:10;;;;;;;3.60;1.98;;;21.60;99.90;;;;;;5008012;28;20050;-81
2023/08/12 03:50:38;;;;;;;3.15;1.35;;;21.60;99.90;;;;;;5001688;28;20099;-83
2023/08/12 03:53:05;;;;;;;5.72;2.92;;;21.60;99.90;;;;;;4998331;28;20050;-83
2023/08/12 03:55:33;;;;;;;4.40;3.13;;;21.60;99.90;;;;;;5010557;28;20050;-81
2023/08/12 03:58:00;;;;;;;2.70;2.28;;;21.60;99.90;;;;;;5007530;28;20072;-82
2023/08/12 04:00:28;;;;;;;2.83;1.50;;;21.60;99.90;;;;;;5007727;28;20045;-84
2023/08/12 04:02:55;;;;;;;5.72;1.42;;;21.70;99.90;;;;;;5005858;28;20129;-82
2023/08/12 04:05:22;;;;;;;4.53;1.50;;;21.60;99.90;;;;;;4999820;28;20104;-82
2023/08/12 04:07:49;;;;;;;3.10;1.65;;;21.60;99.90;;;;;;5010767;28;20046;-82
2023/08/12 04:10:15;;;;;;;3.95;2.00;;;21.60;99.90;;;;;;5012717;28;20046;-82
2023/08/12 04:12:43;;;;;;;2.17;1.80;;;21.60;99.90;;;;;;5006910;28;20074;-82
2023/08/12 04:15:10;;;;;;;3.03;2.22;;;21.60;99.90;;;;;;5006322;28;20058;-81
2023/08/12 04:17:39;;;;;;;4.13;2.10;;;21.50;99.90;;;;;;5006772;28;20070;-82
2023/08/12 04:20:07;;;;;;;2.42;1.60;;;21.60;99.90;;;;;;5001353;28;20422;-82
2023/08/12 04:22:34;;;;;;;3.50;1.70;;;21.60;99.90;;;;;;4993260;28;20049;-82
2023/08/12 04:25:02;;;;;;;4.63;1.40;;;21.60;99.90;;;;;;5011711;28;20472;-82
2023/08/12 04:27:28;;;;;;;3.83;1.23;;;21.60;99.90;;;;;;5005067;28;20049;-81
2023/08/12 04:29:55;;;;;;;5.03;1.77;;;21.60;99.90;;;;;;5004681;28;20042;-82
2023/08/12 04:32:22;;;;;;;2.10;1.40;;;21.60;99.90;;;;;;5004607;28;20115;-82
2023/08/12 04:34:49;;;;;;;2.08;1.40;;;21.50;99.90;;;;;;5001238;28;20074;-83
2023/08/12 04:37:16;;;;;;;3.13;1.60;;;21.50;99.90;;;;;;5013018;28;20053;-80
2023/08/12 04:39:42;;;;;;;2.40;1.05;;;21.50;99.90;;;;;;5011055;28;20166;-82
2023/08/12 04:42:09;;;;;;;3.15;1.40;;;21.50;99.90;;;;;;4998107;28;20188;-82
2023/08/12 04:44:36;;;;;;;2.35;1.45;;;21.50;99.90;;;;;;5003206;28;20395;-80
2023/08/12 04:47:03;;;;;;;3.42;1.67;;;21.50;99.90;;;;;;4997320;28;20045;-82
2023/08/12 04:49:30;;;;;;;2.65;1.58;;;21.50;99.90;;;;;;5003942;28;20045;-82
2023/08/12 04:51:56;;;;;;;6.65;1.48;;;21.50;99.90;;;;;;5006583;28;20486;-82
2023/08/12 04:54:23;;;;;;;2.13;1.70;;;21.50;99.90;;;;;;5010314;28;20069;-82
2023/08/12 04:56:50;;;;;;;4.40;1.60;;;21.50;99.90;;;;;;5007006;28;20039;-82
2023/08/12 04:59:16;;;;;;;2.60;1.38;;;21.50;99.90;;;;;;5003203;28;20054;-81
2023/08/12 05:01:43;;;;;;;3.22;1.50;;;21.50;99.90;;;;;;5008413;28;20469;-83
2023/08/12 05:04:28;;;;;;;2.05;1.33;;;21.50;99.90;;;;;;5009762;28;20050;-82
2023/08/12 05:06:55;;;;;;;1.90;1.38;;;21.50;99.90;;;;;;4986803;28;20049;-82
2023/08/12 05:09:21;;;;;;;6.15;1.42;;;21.50;99.90;;;;;;5008562;28;20077;-83
2023/08/12 05:11:48;;;;;;;1.58;1.48;;;21.50;99.90;;;;;;5007498;28;20050;-81
2023/08/12 05:14:15;;;;;;;2.95;1.63;;;21.60;99.90;;;;;;5001646;28;20563;-83
2023/08/12 05:16:42;;;;;;;3.92;1.30;;;21.60;99.90;;;;;;4990548;28;20042;-83
2023/08/12 05:19:08;;;;;;;3.58;1.73;;;21.60;99.90;;;;;;5003703;28;20054;-83
2023/08/12 05:21:35;;;;;;;2.00;1.48;;;21.60;99.90;;;;;;5008856;28;20080;-82
2023/08/12 05:24:02;;;;;;;2.17;1.50;;;21.60;99.90;;;;;;5008356;28;20046;-82
2023/08/12 05:26:29;;;;;;;2.95;1.58;;;21.60;99.90;;;;;;5008462;28;20394;-81
2023/08/12 05:28:55;;;;;;;4.72;1.83;;;21.60;99.90;;;;;;5002047;28;20076;-82
2023/08/12 05:31:22;;;;;;;3.35;1.80;;;21.70;99.90;;;;;;5010202;28;20524;-83
2023/08/12 05:33:49;;;;;;;3.80;1.48;;;21.70;99.90;;;;;;5006749;28;20394;-82
2023/08/12 05:36:15;;;;;;;16.98;1.95;;;21.70;99.90;;;;;;5009128;28;20042;-81
2023/08/12 05:38:42;;;;;;;2.20;1.67;;;21.80;99.90;;;;;;5006370;28;20046;-82
2023/08/12 05:41:09;;;;;;;4.35;1.92;;;21.80;99.90;;;;;;5007627;28;20456;-82
2023/08/12 05:43:36;;;;;;;2.35;1.58;;;21.80;99.90;;;;;;5001724;28;20128;-83
2023/08/12 05:46:03;;;;;;;4.00;1.70;;;21.80;99.90;;;;;;5012144;28;20072;-82
2023/08/12 05:48:29;;;;;;;2.10;1.55;;;21.80;99.90;;;;;;5008615;28;20053;-82
2023/08/12 05:50:56;;;;;;;3.80;1.90;;;21.90;99.90;;;;;;5009361;28;20073;-81
2023/08/12 05:53:23;;;;;;;2.83;1.60;;;21.90;99.90;;;;;;4991603;28;20053;-83
2023/08/12 05:55:50;;;;;;;7.20;1.75;;;21.90;99.90;;;;;;5009260;28;20046;-83
2023/08/12 05:58:16;;;;;;;5.28;1.90;;;21.90;99.90;;;;;;5002735;28;20050;-83
2023/08/12 06:00:46;;;;;;;4.82;1.60;;;21.90;99.90;;;;;;5009714;28;20066;-82
2023/08/12 06:03:13;;;;;;;4.03;1.55;;;21.90;99.90;;;;;;4994579;28;20050;-82
2023/08/12 06:05:42;;;;;;;2.10;1.83;;;21.90;99.90;;;;;;5009963;28;20536;-83
2023/08/12 06:08:09;;;;;;;3.58;1.50;;;22.00;99.90;;;;;;5006902;28;20053;-83
2023/08/12 06:10:36;;;;;;;2.78;1.65;;;22.00;99.90;;;;;;5008039;28;20041;-84
2023/08/12 06:13:06;;;;;;;;;;;22.00;99.90;;;;;;5002982;28;20589;-85
2023/08/12 06:15:36;;;;;;;3.30;1.95;;;22.00;99.90;;;;;;5009920;28;19944;-83
2023/08/12 06:18:03;;;;;;;3.17;2.15;;;22.00;99.90;;;;;;5014082;28;20112;-83
2023/08/12 06:20:30;;;;;;;2.75;1.92;;;22.00;99.90;;;;;;5011664;28;20041;-84
2023/08/12 06:22:56;;;;;;;3.60;1.88;;;22.00;99.90;;;;;;4988335;28;20050;-84
2023/08/12 06:25:23;;;;;;;4.28;1.83;;;22.00;99.90;;;;;;5009535;28;20050;-82
2023/08/12 06:27:50;;;;;;;1.67;1.35;;;22.00;99.90;;;;;;5002219;28;20584;-85
2023/08/12 06:30:17;;;;;;;2.58;1.77;;;22.00;99.90;;;;;;5007455;28;20050;-84
2023/08/12 06:32:43;;;;;;;3.50;1.95;;;22.10;99.90;;;;;;5011448;28;20053;-83
2023/08/12 06:35:10;;;;;;;2.80;1.60;;;22.10;99.90;;;;;;5008273;28;20054;-83
2023/08/12 06:37:37;;;;;;;4.75;2.45;;;22.00;99.90;;;;;;5008518;28;20116;-83
2023/08/12 06:40:04;;;;;;;2.40;1.88;;;22.10;99.90;;;;;;5011406;28;20100;-83
2023/08/12 06:42:31;;;;;;;4.05;1.75;;;22.10;99.90;;;;;;5006234;28;20077;-84
2023/08/12 06:44:59;;;;;;;2.20;1.98;;;22.10;99.90;;;;;;5011287;28;20065;-84
2023/08/12 06:47:27;;;;;;;5.05;1.92;;;22.10;99.90;;;;;;5013382;28;20497;-84
2023/08/12 06:49:55;;;;;;;3.63;2.10;;;22.20;99.90;;;;;;5008778;28;20045;-84
2023/08/12 06:52:22;;;;;;;2.85;2.08;;;22.20;99.90;;;;;;5006088;28;20097;-84
2023/08/12 06:54:49;;;;;;;2.50;1.88;;;22.30;99.90;;;;;;5012086;28;20121;-84
2023/08/12 06:57:15;;;;;;;2.90;2.03;;;22.30;99.90;;;;;;5004689;28;20054;-83
2023/08/12 06:59:42;;;;;;;2.58;2.00;;;22.40;99.90;;;;;;4989923;28;20465;-84
2023/08/12 07:02:09;;;;;;;5.10;2.35;;;22.40;99.90;;;;;;5009979;28;20740;-84
2023/08/12 07:04:36;;;;;;;3.38;2.00;;;22.40;99.90;;;;;;5012807;28;20093;-85
2023/08/12 07:07:03;;;;;;;2.13;1.80;;;22.50;99.90;;;;;;5008164;28;20046;-84
2023/08/12 07:09:30;;;;;;;4.75;2.05;;;22.60;99.90;;;;;;5013978;28;20049;-84
2023/08/12 07:11:56;;;;;;;4.03;2.00;;;22.60;99.90;;;;;;5012209;28;20042;-84
2023/08/12 07:14:23;;;;;;;3.05;2.05;;;22.80;99.90;;;;;;5013694;28;20077;-84
2023/08/12 07:16:50;;;;;;;3.47;1.80;;;22.90;99.90;;;;;;5009876;28;20485;-83
2023/08/12 07:19:17;;;;;;;3.88;1.60;;;23.00;99.90;;;;;;5009749;28;20049;-84
2023/08/12 07:21:43;;;;;;;3.55;2.13;;;23.20;99.90;;;;;;5002731;28;20561;-84
2023/08/12 07:24:10;;;;;;;5.65;2.03;;;23.30;99.90;;;;;;5006284;28;20137;-85
2023/08/12 07:26:37;;;;;;;3.70;1.90;;;23.40;99.90;;;;;;5004992;28;20136;-84
2023/08/12 07:29:04;;;;;;;4.22;2.10;;;23.40;99.90;;;;;;5010578;28;20100;-84
2023/08/12 07:31:30;;;;;;;3.42;1.73;;;23.40;99.90;;;;;;5011702;28;20105;-83
2023/08/12 07:33:57;;;;;;;4.18;1.90;;;23.40;99.90;;;;;;5008671;28;20042;-84
2023/08/12 07:36:24;;;;;;;4.03;2.15;;;23.40;99.90;;;;;;5005765;28;20091;-84
2023/08/12 07:38:51;;;;;;;6.72;2.30;;;23.40;99.90;;;;;;5007409;28;20096;-85
2023/08/12 07:41:17;;;;;;;2.92;2.13;;;23.30;99.90;;;;;;5010431;28;20399;-84
2023/08/12 07:43:44;;;;;;;4.32;2.33;;;23.30;99.90;;;;;;5014629;28;20268;-83
2023/08/12 07:46:11;;;;;;;4.97;1.92;;;23.30;99.90;;;;;;5007683;28;20497;-85
2023/08/12 07:48:38;;;;;;;2.45;2.05;;;23.30;99.90;;;;;;5010983;28;20456;-83
2023/08/12 07:51:05;;;;;;;3.17;2.10;;;23.30;99.90;;;;;;4987324;28;20049;-84
2023/08/12 07:53:32;;;;;;;2.45;1.95;;;23.30;99.90;;;;;;5009192;28;20046;-84
2023/08/12 07:55:58;;;;;;;2.67;2.13;;;23.30;99.90;;;;;;5013698;28;20409;-84
2023/08/12 07:58:25;;;;;;;5.38;2.42;;;23.20;99.90;;;;;;5015822;28;20042;-85
2023/08/12 08:00:53;;;;;;;2.50;1.92;;;23.20;99.90;;;;;;5001929;28;20117;-84
2023/08/12 08:03:20;;;;;;;5.78;2.03;;;23.20;99.90;;;;;;5011173;28;20054;-85
2023/08/12 08:05:48;;;;;;;6.32;2.63;;;23.10;99.90;;;;;;5001175;28;20501;-83
2023/08/12 08:08:14;;;;;;;5.25;2.78;;;23.00;99.90;;;;;;5000507;28;20417;-84
2023/08/12 08:10:41;;;;;;;4.47;1.98;;;22.80;99.90;;;;;;5044540;23;20103;-79
2023/08/12 08:13:08;;;;;;;5.35;2.30;;;22.80;99.90;;;;;;5061016;28;20049;-79
2023/08/12 08:15:35;;;;;;;2.08;1.63;;;22.70;99.90;;;;;;5052993;28;20048;-79
2023/08/12 08:18:03;;;;;;;4.22;2.47;;;22.60;99.90;;;;;;5053374;28;20056;-78
2023/08/12 08:20:31;;;;;;;4.25;2.40;;;22.60;99.90;;;;;;5053251;28;20060;-79
2023/08/12 08:22:58;;;;;;;3.97;2.60;;;22.60;99.90;;;;;;5044740;28;20068;-78
2023/08/12 08:25:24;;;;;;;4.53;2.60;;;22.60;99.90;;;;;;5051960;28;20102;-79
2023/08/12 08:27:51;;;;;;;3.92;2.30;;;22.60;99.90;;;;;;5052989;28;20045;-78
2023/08/12 08:30:18;;;;;;;3.63;2.20;;;22.60;99.90;;;;;;5036049;28;20069;-78
2023/08/12 08:32:46;;;;;;;2.60;2.35;;;22.50;99.90;;;;;;5049175;28;20502;-78
2023/08/12 08:35:13;;;;;;;4.68;2.28;;;22.70;99.90;;;;;;5044398;28;20486;-79
2023/08/12 08:37:41;;;;;;;4.47;2.80;;;22.70;99.90;;;;;;5038379;28;20067;-78
2023/08/12 08:40:08;;;;;;;6.07;2.35;;;22.80;99.90;;;;;;5049644;28;20049;-78
2023/08/12 08:42:37;;;;;;;5.22;2.80;;;22.90;99.90;;;;;;5052416;28;20065;-79
2023/08/12 08:45:11;;;;;;;7.65;2.40;;;23.00;99.90;;;;;;5029594;28;20417;-79
2023/08/12 08:47:40;;;;;;;4.60;2.60;;;23.10;99.90;;;;;;5030328;28;20106;-79
2023/08/12 08:50:09;;;;;;;4.55;2.63;;;23.20;99.90;;;;;;5027049;28;20057;-78
2023/08/12 08:52:37;;;;;;;5.63;2.60;;;23.30;99.90;;;;;;5047876;28;20389;-79
2023/08/12 08:55:05;;;;;;;5.35;2.63;;;23.40;99.90;;;;;;5048999;28;20042;-80
2023/08/12 08:57:34;;;;;;;4.25;2.30;;;23.50;99.90;;;;;;5050198;28;20052;-78
2023/08/12 09:00:07;;;;;;;4.65;3.05;;;23.60;99.90;;;;;;5044631;28;20049;-79
2023/08/12 09:02:48;;;;;;;5.35;2.50;;;23.70;99.90;;;;;;5050157;28;20135;-78
2023/08/12 09:05:15;;;;;;;5.20;2.50;;;23.80;99.90;;;;;;5038449;28;20049;-78
2023/08/12 09:07:44;;;;;;;7.38;2.80;;;24.00;99.90;;;;;;5052031;28;20083;-78
2023/08/12 09:10:11;;;;;;;4.70;2.75;;;24.10;99.90;;;;;;5050251;28;20050;-79
2023/08/12 09:12:42;;;;;;;3.63;2.20;;;24.20;99.90;;;;;;5038314;28;20041;-78
2023/08/12 09:15:09;;;;;;;5.82;2.90;;;24.30;99.90;;;;;;5047009;28;20061;-79
2023/08/12 09:17:36;;;;;;;6.25;2.30;;;24.30;99.90;;;;;;5049824;28;20733;-79
2023/08/12 09:20:07;;;;;;;3.78;2.50;;;24.30;99.90;;;;;;5047633;28;20045;-78
2023/08/12 09:22:34;;;;;;;7.53;2.70;;;24.30;99.90;;;;;;5049636;28;20045;-78
2023/08/12 09:25:04;;;;;;;6.68;3.00;;;24.30;99.90;;;;;;5051417;28;20495;-78
2023/08/12 09:27:31;;;;;;;4.63;2.38;;;24.30;99.90;;;;;;5052285;28;20061;-78
2023/08/12 09:30:02;;;;;;;4.10;2.70;;;24.40;99.90;;;;;;5037308;28;20041;-78
2023/08/12 09:32:29;;;;;;;6.10;2.50;;;24.40;99.90;;;;;;5051499;28;20052;-79
2023/08/12 09:34:56;;;;;;;3.75;2.30;;;24.50;99.90;;;;;;5046224;28;20040;-80
2023/08/12 09:37:24;;;;;;;4.85;3.15;;;24.50;99.90;;;;;;5046097;28;20041;-78
2023/08/12 09:39:51;;;;;;;3.05;2.30;;;24.70;99.90;;;;;;5044952;28;20643;-78
2023/08/12 09:42:19;;;;;;;5.70;2.53;;;24.80;99.90;;;;;;5044514;28;20131;-78
2023/08/12 09:44:46;;;;;;;4.90;2.50;;;25.00;99.90;;;;;;5031961;28;20155;-79
2023/08/12 09:47:14;;;;;;;4.55;2.53;;;25.10;99.90;;;;;;5043367;28;20053;-81
2023/08/12 09:49:41;;;;;;;5.65;2.25;;;25.30;99.90;;;;;;5045480;28;20060;-79
2023/08/12 09:52:08;;;;;;;2.70;1.90;;;25.40;99.90;;;;;;5050108;28;20107;-79
2023/08/12 09:54:36;;;;;;;5.75;2.53;;;25.50;99.90;;;;;;5047723;28;20148;-80
2023/08/12 09:57:06;;;;;;;7.82;2.20;;;25.70;99.90;;;;;;5044312;28;20044;-79
2023/08/12 09:59:37;;;;;;;;;;;25.80;99.90;;;;;;5041075;28;20493;-79
2023/08/12 10:02:07;;;;;;;2.65;1.90;;;25.90;99.90;;;;;;5042292;28;19928;-79
2023/08/12 10:04:41;;;;;;;;;;;25.90;99.90;;;;;;5044282;28;20543;-80
2023/08/12 10:07:10;;;;;;;4.80;1.88;;;25.90;99.90;;;;;;5033919;28;19935;-80
2023/08/12 10:09:37;;;;;;;3.35;2.30;;;25.90;99.90;;;;;;5044658;28;20050;-79
2023/08/12 10:12:08;;;;;;;4.20;1.98;;;25.90;99.90;;;;;;5048122;28;20048;-79
2023/08/12 10:14:36;;;;;;;3.90;2.22;;;25.90;99.90;;;;;;5047043;28;20057;-80
2023/08/12 10:17:04;;;;;;;2.90;1.77;;;25.90;99.90;;;;;;5047477;28;20041;-80
2023/08/12 10:19:33;;;;;;;2.70;1.90;;;25.90;99.90;;;;;;5051963;28;20662;-80
2023/08/12 10:22:03;;;;;;;3.03;2.00;;;26.00;99.90;;;;;;5054393;28;20075;-80
2023/08/12 10:24:31;;;;;;;4.57;2.00;;;26.00;99.90;;;;;;5047726;28;20085;-80
2023/08/12 10:26:58;;;;;;;4.70;2.17;;;26.10;99.90;;;;;;5049924;28;20538;-79
2023/08/12 10:29:25;;;;;;;4.00;1.88;;;26.20;99.90;;;;;;5044191;28;20072;-80
2023/08/12 10:31:52;;;;;;;3.75;2.17;;;26.20;99.90;;;;;;5048803;28;20049;-78
2023/08/12 10:34:23;;;;;;;3.85;1.80;;;26.30;99.90;;;;;;5035366;28;20053;-79
2023/08/12 10:37:00;;;;;;;2.47;2.03;;;26.50;99.90;;;;;;5055246;28;20045;-80
2023/08/12 10:39:33;;;;;;;2.45;1.77;;;26.60;99.90;;;;;;5045910;28;20049;-79
2023/08/12 10:42:00;;;;;;;2.33;1.85;;;26.80;99.90;;;;;;5038786;28;20041;-77
2023/08/12 10:44:50;;;;;;;2.20;1.70;;;26.90;99.90;;;;;;5052822;28;20084;-79
2023/08/12 10:47:17;;;;;;;3.28;1.90;;;27.10;99.90;;;;;;5037978;28;20050;-79
2023/08/12 10:49:49;;;;;;;4.90;2.33;;;27.10;99.90;;;;;;5053718;28;20049;-79
2023/08/12 10:52:29;;;;;;;2.63;2.00;;;27.10;99.90;;;;;;5055507;28;20053;-78
2023/08/12 10:55:18;;;;;;;2.53;1.98;;;27.10;99.90;;;;;;5047799;28;20103;-80
2023/08/12 10:57:45;;;;;;;5.00;2.03;;;26.90;99.90;;;;;;5053735;28;20064;-78
2023/08/12 11:00:17;;;;;;;4.13;2.17;;;26.80;99.90;;;;;;5048006;28;20067;-78
2023/08/12 11:02:46;;;;;;;3.53;2.28;;;26.70;99.90;;;;;;5054266;28;20053;-79
2023/08/12 11:05:14;;;;;;;4.72;2.10;;;26.50;99.90;;;;;;5053085;28;20103;-78
2023/08/12 11:07:58;;;;;;;4.78;2.50;;;26.40;99.90;;;;;;5050255;28;20566;-79
2023/08/12 11:10:27;;;;;;;3.85;2.42;;;26.30;99.90;;;;;;5049693;28;20051;-79
2023/08/12 11:12:58;;;;;;;4.47;2.20;;;26.20;99.90;;;;;;5032172;28;20037;-80
2023/08/12 11:15:47;;;;;;;11.18;3.55;;;26.10;99.90;;;;;;5044461;28;20045;-80
2023/08/12 11:18:21;;;;;;;10.98;3.95;;;26.10;99.90;;;;;;5047919;28;20414;-79
2023/08/12 11:20:49;;;;;;;6.35;2.78;;;26.10;99.90;;;;;;5049861;28;20757;-79
2023/08/12 11:23:17;;;;;;;6.57;2.95;;;26.10;99.90;;;;;;5043213;28;20100;-78
2023/08/12 11:25:44;;;;;;;3.33;2.22;;;26.10;99.90;;;;;;5044904;28;20053;-79
2023/08/12 11:28:11;;;;;;;4.57;2.83;;;26.20;99.90;;;;;;5049364;28;20053;-79
2023/08/12 11:30:42;;;;;;;5.43;2.45;;;26.30;99.90;;;;;;5042753;28;20099;-81
2023/08/12 11:33:09;;;;;;;3.03;2.03;;;26.40;99.90;;;;;;5037424;28;20041;-80
2023/08/12 11:35:38;;;;;;;4.55;2.20;;;26.50;99.90;;;;;;5038713;28;20045;-79
2023/08/12 11:38:06;;;;;;;5.60;2.10;;;26.60;99.90;;;;;;5046019;28;20041;-79
2023/08/12 11:40:34;;;;;;;4.40;2.00;;;26.70;99.90;;;;;;5043261;28;20053;-79
2023/08/12 11:43:01;;;;;;;4.28;1.98;;;26.80;99.90;;;;;;5049858;28;20049;-79
2023/08/12 11:45:32;;;;;;;2.95;2.33;;;26.80;99.90;;;;;;5042298;28;20085;-79
2023/08/12 11:47:58;;;;;;;3.60;2.05;;;26.80;99.90;;;;;;5048046;28;20099;-79
2023/08/12 11:50:27;;;;;;;3.13;2.53;;;26.90;99.90;;;;;;5046857;28;20049;-78
2023/08/12 11:52:55;;;;;;;4.03;2.10;;;26.90;99.90;;;;;;5045831;28;20045;-78
2023/08/12 11:55:23;;;;;;;4.10;2.00;;;26.90;99.90;;;;;;5044710;28;20056;-79
2023/08/12 11:57:51;;;;;;;3.58;2.22;;;27.00;99.90;;;;;;5046504;28;20124;-79
2023/08/12 12:00:19;;;;;;;6.32;3.05;;;27.00;99.90;;;;;;5051898;28;20204;-78
2023/08/12 12:02:51;;;;;;;3.83;2.15;;;27.20;99.90;;;;;;5047298;28;20600;-79
2023/08/12 12:05:20;;;;;;;3.08;2.10;;;27.30;99.90;;;;;;5046551;28;20068;-78
2023/08/12 12:07:51;;;;;;;4.60;2.30;;;27.40;99.90;;;;;;5043881;28;20053;-80
2023/08/12 12:10:20;;;;;;;6.15;2.28;;;27.50;99.90;;;;;;5037133;28;20742;-78
2023/08/12 12:12:47;;;;;;;3.97;2.13;;;27.60;99.90;;;;;;5037458;28;20042;-79
2023/08/12 12:15:15;;;;;;;3.05;2.33;;;27.70;99.90;;;;;;5051696;28;20048;-78
2023/08/12 12:17:44;;;;;;;3.47;2.20;;;27.90;99.90;;;;;;5045664;28;20125;-79
2023/08/12 12:20:11;;;;;;;3.60;2.70;;;27.90;99.90;;;;;;5046108;28;20113;-79
2023/08/12 12:22:38;;;;;;;4.45;1.85;;;28.00;99.90;;;;;;5025947;28;20496;-79
2023/08/12 12:25:07;;;;;;;3.58;2.13;;;28.10;99.90;;;;;;5032959;28;20045;-79
2023/08/12 12:27:34;;;;;;;2.97;2.03;;;28.10;99.90;;;;;;5048543;28;20060;-79
2023/08/12 12:30:01;;;;;;;3.25;2.10;;;28.10;99.90;;;;;;5051950;28;20041;-78
2023/08/12 12:32:29;;;;;;;4.32;2.38;;;28.10;99.90;;;;;;5042577;28;20452;-79
2023/08/12 12:34:56;;;;;;;3.70;2.30;;;28.10;99.90;;;;;;5046558;28;20060;-78
2023/08/12 12:37:22;;;;;;;3.90;2.08;;;28.00;99.90;;;;;;5041208;28;20046;-79
2023/08/12 12:39:49;;;;;;;3.75;2.17;;;27.90;99.90;;;;;;5040054;28;20533;-79
2023/08/12 12:42:16;;;;;;;3.28;2.22;;;27.90;99.90;;;;;;5048030;28;20099;-78
2023/08/12 12:44:42;;;;;;;5.22;2.13;;;27.80;99.90;;;;;;5052169;28;20053;-79
2023/08/12 12:47:12;;;;;;;3.95;2.40;;;27.80;99.90;;;;;;5043007;28;20081;-79
2023/08/12 12:49:41;;;;;;;3.00;2.30;;;27.80;99.90;;;;;;5035581;28;20060;-79
2023/08/12 12:52:08;;;;;;;4.18;2.55;;;27.80;99.90;;;;;;5043908;28;20528;-80